Time;durP1;ratioP1;P1;durP2;ratioP2;P2;SDS_P1;SDS_P2;PMS_P1;PMS_P2;Temp;Humidity;BMP_temperature;BMP_pressure;BME280_temperature;BME280_humidity;BME280_pressure;Samples;Min_cycle;Max_cycle;Signal;HPM_P1;HPM_P2
2022/07/16 00:03:19;;;;;;;4.15;1.80;;;;;;;;;;5085258;28;20063;-68
2022/07/16 00:05:45;;;;;;;9.70;2.00;;;;;;;;;;5071373;28;20029;-67
2022/07/16 00:08:11;;;;;;;4.20;1.75;;;;;;;;;;5077827;28;20020;-68
2022/07/16 00:10:37;;;;;;;7.68;1.85;;;;;;;;;;5077173;28;20445;-68
2022/07/16 00:13:02;;;;;;;4.45;2.10;;;;;;;;;;5078454;28;20035;-67
2022/07/16 00:15:28;;;;;;;4.28;1.80;;;;;;;;;;5095131;28;20141;-68
2022/07/16 00:19:15;;;;;;;4.80;1.90;;;;;;;;;;5094120;28;20054;-67
2022/07/16 00:20:39;;;;;;;4.57;1.92;;;;;;;;;;5094236;28;20424;-68
2022/07/16 00:23:06;;;;;;;4.82;2.08;;;;;;;;;;5095115;28;20049;-67
2022/07/16 00:25:31;;;;;;;5.00;1.77;;;;;;;;;;5095193;28;20157;-67
2022/07/16 00:27:57;;;;;;;5.47;2.00;;;;;;;;;;5093983;28;20048;-67
2022/07/16 00:30:22;;;;;;;4.93;2.10;;;;;;;;;;5095275;28;20044;-67
2022/07/16 00:32:47;;;;;;;5.30;2.07;;;;;;;;;;5084863;28;20040;-67
2022/07/16 00:35:13;;;;;;;5.23;2.17;;;;;;;;;;5074906;28;20028;-67
2022/07/16 00:37:38;;;;;;;12.77;2.55;;;;;;;;;;5077879;28;20038;-67
2022/07/16 00:40:04;;;;;;;5.72;2.30;;;;;;;;;;5094969;28;20099;-67
2022/07/16 00:42:29;;;;;;;3.97;2.00;;;;;;;;;;5093134;28;20046;-68
2022/07/16 00:44:54;;;;;;;6.18;2.10;;;;;;;;;;5075126;28;20448;-67
2022/07/16 00:47:19;;;;;;;5.65;2.40;;;;;;;;;;5074416;28;20081;-67
2022/07/16 00:49:45;;;;;;;6.18;2.50;;;;;;;;;;5094864;28;20036;-68
2022/07/16 00:52:10;;;;;;;4.32;2.15;;;;;;;;;;5094402;28;20111;-67
2022/07/16 00:54:35;;;;;;;4.97;2.13;;;;;;;;;;5083386;28;20033;-67
2022/07/16 00:57:00;;;;;;;5.20;2.40;;;;;;;;;;5074581;28;20028;-67
2022/07/16 00:59:26;;;;;;;7.55;2.80;;;;;;;;;;5091632;28;20032;-68
2022/07/16 01:01:51;;;;;;;5.28;2.05;;;;;;;;;;5093911;28;20487;-67
2022/07/16 01:04:17;;;;;;;5.47;2.40;;;;;;;;;;5088295;28;20031;-67
2022/07/16 01:06:43;;;;;;;5.10;2.20;;;;;;;;;;5089587;28;20027;-68
2022/07/16 01:09:09;;;;;;;6.47;2.25;;;;;;;;;;5092746;28;20047;-68
2022/07/16 01:11:35;;;;;;;9.20;2.70;;;;;;;;;;5084851;28;20125;-68
2022/07/16 01:14:00;;;;;;;8.55;3.13;;;;;;;;;;5086676;28;20097;-68
2022/07/16 01:16:25;;;;;;;4.07;2.00;;;;;;;;;;5073614;28;20032;-68
2022/07/16 01:18:51;;;;;;;5.53;2.10;;;;;;;;;;5085390;28;20036;-68
2022/07/16 01:21:16;;;;;;;6.70;2.63;;;;;;;;;;5080299;28;20043;-68
2022/07/16 01:23:42;;;;;;;5.97;2.40;;;;;;;;;;5083568;28;20086;-68
2022/07/16 01:26:08;;;;;;;6.30;2.20;;;;;;;;;;5080901;28;20069;-69
2022/07/16 01:28:33;;;;;;;5.25;1.95;;;;;;;;;;5092436;28;20476;-68
2022/07/16 01:30:58;;;;;;;5.65;2.20;;;;;;;;;;5092820;28;20062;-68
2022/07/16 01:33:31;;;;;;;5.03;2.30;;;;;;;;;;5086774;28;20111;-68
2022/07/16 01:36:01;;;;;;;4.38;2.28;;;;;;;;;;5089494;28;20444;-68
2022/07/16 01:38:26;;;;;;;6.60;2.10;;;;;;;;;;5084533;28;20488;-68
2022/07/16 01:40:52;;;;;;;4.23;2.43;;;;;;;;;;5091585;28;20149;-68
2022/07/16 01:43:18;;;;;;;4.38;2.15;;;;;;;;;;5093241;28;20028;-68
2022/07/16 01:45:44;;;;;;;4.00;2.17;;;;;;;;;;5085132;28;20407;-68
2022/07/16 01:48:10;;;;;;;4.57;1.98;;;;;;;;;;5086401;28;20028;-68
2022/07/16 01:50:36;;;;;;;4.35;1.85;;;;;;;;;;5080607;28;20029;-68
2022/07/16 01:53:02;;;;;;;5.03;2.10;;;;;;;;;;5090802;28;20068;-68
2022/07/16 01:55:27;;;;;;;5.57;1.80;;;;;;;;;;5075295;28;20063;-68
2022/07/16 01:57:52;;;;;;;7.07;2.30;;;;;;;;;;5073418;28;20472;-68
2022/07/16 02:00:17;;;;;;;4.35;2.30;;;;;;;;;;5075557;28;20415;-68
2022/07/16 02:02:43;;;;;;;3.42;1.92;;;;;;;;;;5086089;28;20027;-68
2022/07/16 02:05:08;;;;;;;5.72;2.20;;;;;;;;;;5088998;28;20094;-68
2022/07/16 02:07:33;;;;;;;5.82;2.10;;;;;;;;;;5090018;28;20024;-68
2022/07/16 02:09:59;;;;;;;4.93;1.90;;;;;;;;;;5087115;28;20028;-68
2022/07/16 02:12:24;;;;;;;4.13;2.00;;;;;;;;;;5077485;28;20380;-68
2022/07/16 02:14:49;;;;;;;6.30;2.17;;;;;;;;;;5091751;28;20392;-68
2022/07/16 02:17:14;;;;;;;5.43;2.17;;;;;;;;;;5092309;28;20032;-69
2022/07/16 02:19:40;;;;;;;4.60;2.10;;;;;;;;;;5074297;28;20072;-68
2022/07/16 02:22:06;;;;;;;7.07;2.53;;;;;;;;;;5072430;28;20099;-68
2022/07/16 02:24:31;;;;;;;5.13;2.20;;;;;;;;;;5089655;28;20039;-68
2022/07/16 02:26:57;;;;;;;5.10;2.20;;;;;;;;;;5080330;28;20028;-67
2022/07/16 02:29:22;;;;;;;5.10;2.25;;;;;;;;;;5073851;28;20436;-67
2022/07/16 02:31:47;;;;;;;7.47;2.70;;;;;;;;;;5072153;28;20469;-67
2022/07/16 02:34:12;;;;;;;5.75;2.72;;;;;;;;;;5087873;28;20066;-67
2022/07/16 02:36:38;;;;;;;6.75;2.83;;;;;;;;;;5086348;28;20021;-67
2022/07/16 02:39:03;;;;;;;7.82;3.10;;;;;;;;;;5087547;28;20035;-67
2022/07/16 02:41:28;;;;;;;5.85;3.25;;;;;;;;;;5087347;28;20040;-68
2022/07/16 02:43:53;;;;;;;8.83;3.40;;;;;;;;;;5075963;28;20086;-67
2022/07/16 02:46:19;;;;;;;8.15;3.67;;;;;;;;;;5089834;28;20028;-68
2022/07/16 02:48:44;;;;;;;8.17;4.13;;;;;;;;;;5085967;28;20418;-68
2022/07/16 02:51:09;;;;;;;9.93;4.70;;;;;;;;;;5088311;28;20032;-69
2022/07/16 02:53:34;;;;;;;9.77;5.20;;;;;;;;;;5085490;28;20038;-67
2022/07/16 02:56:00;;;;;;;10.83;6.23;;;;;;;;;;5071714;28;20119;-67
2022/07/16 02:58:25;;;;;;;10.10;5.97;;;;;;;;;;5078766;28;20169;-67
2022/07/16 03:00:51;;;;;;;9.93;6.30;;;;;;;;;;5082559;28;20074;-67
2022/07/16 03:03:16;;;;;;;12.33;6.53;;;;;;;;;;5082858;28;20051;-67
2022/07/16 03:05:41;;;;;;;10.00;6.63;;;;;;;;;;5087561;28;20521;-67
2022/07/16 03:08:07;;;;;;;11.10;6.23;;;;;;;;;;5085724;28;20021;-67
2022/07/16 03:10:32;;;;;;;11.87;6.63;;;;;;;;;;5090588;28;20383;-67
2022/07/16 03:12:57;;;;;;;12.27;6.33;;;;;;;;;;5089946;28;20035;-67
2022/07/16 03:15:22;;;;;;;12.47;7.00;;;;;;;;;;5086992;28;20070;-67
2022/07/16 03:17:48;;;;;;;13.17;7.10;;;;;;;;;;5073837;28;20036;-66
2022/07/16 03:20:13;;;;;;;13.27;7.87;;;;;;;;;;5086766;28;20016;-66
2022/07/16 03:22:43;;;;;;;12.53;7.40;;;;;;;;;;5089041;28;20059;-67
2022/07/16 03:25:08;;;;;;;13.67;8.03;;;;;;;;;;5078037;28;20035;-67
2022/07/16 03:27:33;;;;;;;12.13;7.77;;;;;;;;;;5086938;28;20028;-67
2022/07/16 03:29:58;;;;;;;16.13;8.13;;;;;;;;;;5087810;28;20074;-68
2022/07/16 03:32:24;;;;;;;11.10;8.23;;;;;;;;;;5078824;28;20036;-67
2022/07/16 03:34:49;;;;;;;16.73;9.13;;;;;;;;;;5086351;28;20027;-67
2022/07/16 03:37:14;;;;;;;16.87;10.00;;;;;;;;;;5075727;28;20041;-67
2022/07/16 03:39:39;;;;;;;15.70;9.67;;;;;;;;;;5088414;28;20031;-67
2022/07/16 03:42:04;;;;;;;14.33;8.20;;;;;;;;;;5078059;28;20016;-67
2022/07/16 03:44:30;;;;;;;16.57;9.13;;;;;;;;;;5079631;28;20103;-67
2022/07/16 03:46:55;;;;;;;14.70;8.37;;;;;;;;;;5076877;28;20118;-67
2022/07/16 03:49:20;;;;;;;35.57;10.53;;;;;;;;;;5083950;28;20115;-67
2022/07/16 03:51:45;;;;;;;14.83;8.80;;;;;;;;;;5072241;28;20575;-67
2022/07/16 03:54:11;;;;;;;17.63;8.47;;;;;;;;;;5085073;28;20020;-67
2022/07/16 03:56:36;;;;;;;15.73;9.07;;;;;;;;;;5088490;28;20024;-67
2022/07/16 03:59:01;;;;;;;16.23;8.93;;;;;;;;;;5088685;28;20016;-67
2022/07/16 04:01:27;;;;;;;18.37;10.20;;;;;;;;;;5079349;28;20103;-66
2022/07/16 04:03:52;;;;;;;16.43;10.40;;;;;;;;;;5082032;28;20017;-67
2022/07/16 04:06:18;;;;;;;18.10;10.63;;;;;;;;;;5084017;28;20593;-67
2022/07/16 04:08:43;;;;;;;21.43;10.90;;;;;;;;;;5088630;28;20051;-67
2022/07/16 04:11:08;;;;;;;18.10;10.50;;;;;;;;;;5086570;28;20460;-67
2022/07/16 04:13:36;;;;;;;15.97;9.00;;;;;;;;;;5089538;28;20024;-67
2022/07/16 04:16:01;;;;;;;15.30;8.57;;;;;;;;;;5089269;28;20020;-67
2022/07/16 04:18:26;;;;;;;14.43;8.50;;;;;;;;;;5088417;28;20039;-66
2022/07/16 04:20:51;;;;;;;13.17;8.10;;;;;;;;;;5075652;28;20035;-67
2022/07/16 04:23:17;;;;;;;13.97;8.07;;;;;;;;;;5089793;28;20028;-67
2022/07/16 04:25:43;;;;;;;13.73;7.00;;;;;;;;;;5076856;28;20063;-67
2022/07/16 04:28:08;;;;;;;15.37;7.87;;;;;;;;;;5088414;28;20028;-67
2022/07/16 04:30:33;;;;;;;11.83;7.67;;;;;;;;;;5076471;28;20020;-67
2022/07/16 04:32:59;;;;;;;10.13;6.80;;;;;;;;;;5088595;28;20027;-67
2022/07/16 04:35:24;;;;;;;11.87;6.17;;;;;;;;;;5081679;28;20024;-67
2022/07/16 04:37:49;;;;;;;11.60;6.50;;;;;;;;;;5080503;28;20028;-67
2022/07/16 04:40:15;;;;;;;11.40;6.37;;;;;;;;;;5086101;28;20469;-66
2022/07/16 04:42:42;;;;;;;13.67;6.83;;;;;;;;;;5074909;28;20032;-67
2022/07/16 04:45:08;;;;;;;10.33;6.23;;;;;;;;;;5084760;28;20020;-67
2022/07/16 04:47:33;;;;;;;12.33;7.07;;;;;;;;;;5089432;28;20494;-67
2022/07/16 04:49:59;;;;;;;13.30;6.47;;;;;;;;;;5082874;28;20512;-67
2022/07/16 04:52:24;;;;;;;9.30;5.77;;;;;;;;;;5081751;28;20068;-67
2022/07/16 04:54:49;;;;;;;9.83;5.00;;;;;;;;;;5086120;28;20035;-67
2022/07/16 04:57:14;;;;;;;9.03;4.20;;;;;;;;;;5090597;28;20067;-67
2022/07/16 04:59:40;;;;;;;7.10;4.03;;;;;;;;;;5076880;28;20056;-67
2022/07/16 05:04:49;;;;;;;7.45;3.65;;;;;;;;;;5078581;28;20032;-67
2022/07/16 05:07:14;;;;;;;8.43;3.78;;;;;;;;;;5092846;28;20435;-67
2022/07/16 05:09:39;;;;;;;10.80;3.78;;;;;;;;;;5085435;28;20112;-67
2022/07/16 05:12:05;;;;;;;11.60;3.78;;;;;;;;;;5093905;28;20036;-67
2022/07/16 05:14:30;;;;;;;6.78;3.83;;;;;;;;;;5087310;28;20107;-67
2022/07/16 05:16:56;;;;;;;12.40;3.78;;;;;;;;;;5073806;28;20028;-67
2022/07/16 05:19:21;;;;;;;7.97;3.10;;;;;;;;;;5086750;28;20107;-68
2022/07/16 05:21:47;;;;;;;6.28;3.17;;;;;;;;;;5073783;28;20111;-67
2022/07/16 05:24:12;;;;;;;8.23;2.92;;;;;;;;;;5090792;28;20048;-68
2022/07/16 05:26:37;;;;;;;6.65;2.70;;;;;;;;;;5091059;28;20086;-68
2022/07/16 05:29:02;;;;;;;8.73;2.75;;;;;;;;;;5078308;28;20028;-67
2022/07/16 05:31:28;;;;;;;5.85;2.55;;;;;;;;;;5077138;28;20038;-67
2022/07/16 05:33:53;;;;;;;6.32;2.40;;;;;;;;;;5090445;28;20056;-68
2022/07/16 05:36:18;;;;;;;6.57;2.50;;;;;;;;;;5092027;28;20020;-67
2022/07/16 05:38:44;;;;;;;4.10;1.95;;;;;;;;;;5093574;28;20062;-67
2022/07/16 05:41:09;;;;;;;5.93;2.10;;;;;;;;;;5093788;28;20061;-67
2022/07/16 05:43:34;;;;;;;5.30;1.92;;;;;;;;;;5089352;28;20047;-67
2022/07/16 05:45:59;;;;;;;5.07;1.98;;;;;;;;;;5092696;28;20024;-68
2022/07/16 05:48:24;;;;;;;6.40;2.13;;;;;;;;;;5093068;28;20031;-67
2022/07/16 05:50:50;;;;;;;5.93;1.83;;;;;;;;;;5087603;28;20036;-68
2022/07/16 05:53:15;;;;;;;7.88;2.10;;;;;;;;;;5082080;28;20035;-67
2022/07/16 05:55:40;;;;;;;5.05;2.15;;;;;;;;;;5088466;28;20031;-67
2022/07/16 05:58:05;;;;;;;8.45;2.35;;;;;;;;;;5079322;28;20369;-67
2022/07/16 06:00:31;;;;;;;7.35;1.90;;;;;;;;;;5078988;28;20031;-67
2022/07/16 06:02:56;;;;;;;6.35;2.13;;;;;;;;;;5081669;28;20522;-68
2022/07/16 06:05:22;;;;;;;4.93;1.90;;;;;;;;;;5093453;28;20093;-68
2022/07/16 06:07:47;;;;;;;7.10;2.55;;;;;;;;;;5085242;28;20361;-67
2022/07/16 06:10:12;;;;;;;5.03;2.00;;;;;;;;;;5090354;28;20081;-67
2022/07/16 06:12:38;;;;;;;8.32;2.22;;;;;;;;;;5077806;28;20023;-68
2022/07/16 06:15:04;;;;;;;5.25;2.40;;;;;;;;;;5087542;28;20024;-67
2022/07/16 06:17:29;;;;;;;6.05;2.70;;;;;;;;;;5073088;28;20032;-67
2022/07/16 06:19:55;;;;;;;5.43;2.08;;;;;;;;;;5093104;28;20430;-68
2022/07/16 06:22:20;;;;;;;6.13;2.10;;;;;;;;;;5079196;28;20480;-67
2022/07/16 06:24:45;;;;;;;7.13;2.20;;;;;;;;;;5092524;28;20035;-67
2022/07/16 06:27:10;;;;;;;8.32;2.45;;;;;;;;;;5092935;28;20024;-68
2022/07/16 06:29:35;;;;;;;6.60;2.10;;;;;;;;;;5087020;28;20395;-67
2022/07/16 06:32:01;;;;;;;5.60;2.00;;;;;;;;;;5075201;28;20590;-67
2022/07/16 06:34:26;;;;;;;5.30;2.17;;;;;;;;;;5077494;28;20082;-68
2022/07/16 06:36:51;;;;;;;12.45;2.00;;;;;;;;;;5080215;28;20035;-67
2022/07/16 06:39:16;;;;;;;4.80;1.65;;;;;;;;;;5083561;28;20020;-67
2022/07/16 06:41:41;;;;;;;4.78;1.60;;;;;;;;;;5074363;28;20100;-68
2022/07/16 06:44:09;;;;;;;6.30;1.67;;;;;;;;;;5073969;28;20044;-67
2022/07/16 06:46:34;;;;;;;7.55;2.20;;;;;;;;;;5071975;28;20028;-68
2022/07/16 06:48:59;;;;;;;5.65;1.70;;;;;;;;;;5085819;28;20024;-67
2022/07/16 06:51:25;;;;;;;6.28;1.90;;;;;;;;;;5090451;28;20046;-67
2022/07/16 06:53:50;;;;;;;9.82;2.28;;;;;;;;;;5084602;28;20032;-67
2022/07/16 06:56:15;;;;;;;13.10;2.35;;;;;;;;;;5092413;28;20034;-67
2022/07/16 06:58:40;;;;;;;6.80;2.40;;;;;;;;;;5088822;28;20012;-67
2022/07/16 07:01:06;;;;;;;5.97;2.40;;;;;;;;;;5071783;28;20465;-67
2022/07/16 07:03:31;;;;;;;6.65;2.42;;;;;;;;;;5081391;28;20055;-67
2022/07/16 07:05:57;;;;;;;6.15;2.03;;;;;;;;;;5091778;28;20357;-67
2022/07/16 07:08:22;;;;;;;6.63;2.00;;;;;;;;;;5091298;28;20028;-67
2022/07/16 07:10:47;;;;;;;5.30;1.40;;;;;;;;;;5092169;28;20377;-67
2022/07/16 07:13:13;;;;;;;4.00;1.20;;;;;;;;;;5084335;28;20055;-67
2022/07/16 07:15:38;;;;;;;9.40;1.60;;;;;;;;;;5092161;28;20171;-67
2022/07/16 07:18:03;;;;;;;5.50;1.20;;;;;;;;;;5091316;28;20164;-67
2022/07/16 07:20:29;;;;;;;6.75;1.45;;;;;;;;;;5091354;28;20502;-67
2022/07/16 07:22:55;;;;;;;6.93;1.40;;;;;;;;;;5084847;28;20027;-67
2022/07/16 07:25:20;;;;;;;10.88;1.55;;;;;;;;;;5082092;28;20020;-67
2022/07/16 07:27:45;;;;;;;6.90;1.15;;;;;;;;;;5074745;28;20023;-67
2022/07/16 07:30:11;;;;;;;8.32;1.13;;;;;;;;;;5091507;28;20047;-67
2022/07/16 07:32:36;;;;;;;6.05;1.20;;;;;;;;;;5088139;28;20022;-68
2022/07/16 07:35:02;;;;;;;7.40;1.17;;;;;;;;;;5086605;28;20103;-68
2022/07/16 07:37:27;;;;;;;6.00;1.20;;;;;;;;;;5071993;28;20028;-68
2022/07/16 07:39:52;;;;;;;10.45;1.58;;;;;;;;;;5091686;28;20035;-68
2022/07/16 07:42:17;;;;;;;4.05;1.10;;;;;;;;;;5091336;28;20060;-67
2022/07/16 07:44:43;;;;;;;8.77;1.55;;;;;;;;;;5091452;28;20055;-68
2022/07/16 07:47:08;;;;;;;6.50;1.20;;;;;;;;;;5089280;28;20029;-68
2022/07/16 07:49:33;;;;;;;10.65;1.30;;;;;;;;;;5091152;28;20043;-67
2022/07/16 07:51:58;;;;;;;6.35;1.20;;;;;;;;;;5089412;28;20107;-67
2022/07/16 07:54:24;;;;;;;6.25;1.30;;;;;;;;;;5079442;28;20107;-68
2022/07/16 07:56:49;;;;;;;5.97;1.33;;;;;;;;;;5070958;28;20028;-68
2022/07/16 07:59:14;;;;;;;6.90;1.15;;;;;;;;;;5086755;28;20392;-68
2022/07/16 08:01:39;;;;;;;6.22;0.90;;;;;;;;;;5091196;28;20020;-68
2022/07/16 08:04:05;;;;;;;4.43;0.90;;;;;;;;;;5083613;28;20063;-68
2022/07/16 08:06:30;;;;;;;8.18;1.10;;;;;;;;;;5072432;28;20039;-68
2022/07/16 08:08:55;;;;;;;5.22;1.13;;;;;;;;;;5087149;28;20461;-68
2022/07/16 08:11:20;;;;;;;5.13;0.93;;;;;;;;;;5091286;28;20024;-68
2022/07/16 08:13:46;;;;;;;6.00;1.00;;;;;;;;;;5090759;28;20081;-68
2022/07/16 08:16:11;;;;;;;6.15;1.00;;;;;;;;;;5082296;28;20029;-68
2022/07/16 08:18:36;;;;;;;4.82;1.05;;;;;;;;;;5081446;28;20099;-68
2022/07/16 08:21:01;;;;;;;5.25;0.90;;;;;;;;;;5091142;28;20028;-68
2022/07/16 08:26:10;;;;;;;4.50;0.85;;;;;;;;;;5070680;28;20051;-68
2022/07/16 08:28:40;;;;;;;3.65;0.80;;;;;;;;;;5081445;28;20020;-69
2022/07/16 08:31:06;;;;;;;4.53;1.00;;;;;;;;;;5091285;28;20036;-68
2022/07/16 08:33:31;;;;;;;5.63;0.95;;;;;;;;;;5089436;28;20024;-68
2022/07/16 08:35:56;;;;;;;5.93;1.00;;;;;;;;;;5094928;28;20023;-68
2022/07/16 08:38:21;;;;;;;5.18;1.20;;;;;;;;;;5084782;28;20016;-67
2022/07/16 08:40:49;;;;;;;3.55;0.88;;;;;;;;;;5082411;28;20030;-67
2022/07/16 08:43:14;;;;;;;4.53;0.80;;;;;;;;;;5077620;28;20013;-67
2022/07/16 08:45:40;;;;;;;4.68;1.02;;;;;;;;;;5078930;28;20035;-68
2022/07/16 08:48:06;;;;;;;3.05;0.90;;;;;;;;;;5075593;28;20016;-68
2022/07/16 08:50:32;;;;;;;4.75;0.70;;;;;;;;;;5074345;28;20036;-68
2022/07/16 08:52:57;;;;;;;3.22;0.75;;;;;;;;;;5080420;28;20028;-67
2022/07/16 08:55:23;;;;;;;4.53;0.80;;;;;;;;;;5094374;28;20027;-68
2022/07/16 08:57:48;;;;;;;3.03;0.70;;;;;;;;;;5092495;28;20012;-69
2022/07/16 09:00:14;;;;;;;4.28;1.00;;;;;;;;;;5094681;28;20502;-68
2022/07/16 09:02:40;;;;;;;4.03;0.88;;;;;;;;;;5094122;28;20032;-68
2022/07/16 09:05:06;;;;;;;6.38;0.85;;;;;;;;;;5094244;28;20038;-68
2022/07/16 09:07:31;;;;;;;5.28;0.95;;;;;;;;;;5092606;28;20036;-68
2022/07/16 09:09:57;;;;;;;5.07;0.85;;;;;;;;;;5094016;28;20073;-68
2022/07/16 09:12:37;;;;;;;4.97;0.90;;;;;;;;;;5093934;28;20020;-69
2022/07/16 09:15:21;;;;;;;5.10;1.00;;;;;;;;;;5073923;28;20074;-68
2022/07/16 09:18:03;;;;;;;3.65;0.80;;;;;;;;;;5076979;28;20028;-68
2022/07/16 09:20:29;;;;;;;3.97;0.70;;;;;;;;;;5093992;28;20425;-68
2022/07/16 09:22:54;;;;;;;5.20;0.68;;;;;;;;;;5076397;28;20044;-68
2022/07/16 09:25:20;;;;;;;4.95;0.73;;;;;;;;;;5074334;28;20078;-68
2022/07/16 09:27:45;;;;;;;5.13;0.80;;;;;;;;;;5075242;28;20032;-68
2022/07/16 09:30:21;;;;;;;7.88;1.02;;;;;;;;;;5081409;28;20016;-68
2022/07/16 09:32:46;;;;;;;4.60;0.80;;;;;;;;;;5081271;28;20032;-68
2022/07/16 09:35:16;;;;;;;6.65;1.10;;;;;;;;;;5074677;28;20522;-68
2022/07/16 09:37:49;;;;;;;6.32;0.90;;;;;;;;;;5076230;28;20032;-67
2022/07/16 09:40:15;;;;;;;5.38;0.88;;;;;;;;;;5079313;28;20048;-68
2022/07/16 09:42:40;;;;;;;6.15;1.30;;;;;;;;;;5069796;28;20699;-68
2022/07/16 09:45:07;;;;;;;6.97;1.08;;;;;;;;;;5077792;28;20012;-68
2022/07/16 09:47:32;;;;;;;4.15;0.82;;;;;;;;;;5079845;28;20031;-68
2022/07/16 09:49:57;;;;;;;4.43;0.77;;;;;;;;;;5088336;28;20020;-68
2022/07/16 09:52:27;;;;;;;5.97;1.10;;;;;;;;;;5072482;28;20036;-68
2022/07/16 09:54:56;;;;;;;5.47;1.20;;;;;;;;;;5080733;28;20074;-68
2022/07/16 09:57:21;;;;;;;3.50;0.70;;;;;;;;;;5088150;28;20397;-68
2022/07/16 09:59:47;;;;;;;3.83;0.88;;;;;;;;;;5077772;28;20030;-68
2022/07/16 10:02:13;;;;;;;3.90;0.80;;;;;;;;;;5081864;28;20035;-68
2022/07/16 10:04:38;;;;;;;5.60;0.90;;;;;;;;;;5086210;28;20043;-68
2022/07/16 10:07:04;;;;;;;4.22;0.80;;;;;;;;;;5087596;28;20145;-67
2022/07/16 10:09:29;;;;;;;3.72;0.70;;;;;;;;;;5079461;28;20024;-68
2022/07/16 10:11:56;;;;;;;5.20;1.25;;;;;;;;;;5079703;28;20028;-68
2022/07/16 10:14:21;;;;;;;5.00;1.20;;;;;;;;;;5084794;28;20545;-68
2022/07/16 10:16:47;;;;;;;6.22;0.88;;;;;;;;;;5088005;28;20032;-68
2022/07/16 10:19:13;;;;;;;3.75;0.88;;;;;;;;;;5083935;28;20032;-68
2022/07/16 10:21:39;;;;;;;3.95;0.90;;;;;;;;;;5069205;28;20127;-68
2022/07/16 10:24:15;;;;;;;6.28;0.82;;;;;;;;;;5071285;28;20107;-68
2022/07/16 10:26:41;;;;;;;4.13;0.90;;;;;;;;;;5074980;28;20077;-68
2022/07/16 10:29:06;;;;;;;5.60;0.90;;;;;;;;;;5083232;28;20935;-67
2022/07/16 10:31:39;;;;;;;5.82;0.90;;;;;;;;;;5074624;28;20483;-67
2022/07/16 10:34:16;;;;;;;7.30;0.90;;;;;;;;;;5069555;28;20133;-68
2022/07/16 10:36:50;;;;;;;5.38;0.80;;;;;;;;;;5070138;28;20035;-69
2022/07/16 10:39:15;;;;;;;3.53;0.70;;;;;;;;;;5082177;28;20611;-68
2022/07/16 10:41:50;;;;;;;3.33;0.70;;;;;;;;;;5074246;28;20028;-69
2022/07/16 10:44:15;;;;;;;4.43;0.88;;;;;;;;;;5076335;28;20020;-68
2022/07/16 10:46:54;;;;;;;5.38;1.10;;;;;;;;;;5073971;28;20349;-68
2022/07/16 10:49:20;;;;;;;3.65;0.75;;;;;;;;;;5077654;28;20027;-69
2022/07/16 10:52:05;;;;;;;3.97;0.80;;;;;;;;;;5076058;28;20411;-68
2022/07/16 10:54:35;;;;;;;4.60;0.90;;;;;;;;;;5074939;28;20030;-68
2022/07/16 10:57:02;;;;;;;4.93;0.90;;;;;;;;;;5083539;28;20415;-68
2022/07/16 10:59:28;;;;;;;3.88;0.70;;;;;;;;;;5076244;28;20031;-68
2022/07/16 11:01:55;;;;;;;3.15;0.70;;;;;;;;;;5088570;28;20026;-68
2022/07/16 11:04:32;;;;;;;4.47;0.90;;;;;;;;;;5078539;28;20555;-68
2022/07/16 11:06:58;;;;;;;4.93;1.00;;;;;;;;;;5074068;28;20029;-68
2022/07/16 11:09:28;;;;;;;3.08;0.55;;;;;;;;;;5073968;28;20029;-68
2022/07/16 11:11:54;;;;;;;4.85;0.77;;;;;;;;;;5075070;28;20024;-69
2022/07/16 11:14:19;;;;;;;4.60;0.98;;;;;;;;;;5078893;28;20115;-68
2022/07/16 11:16:48;;;;;;;6.05;0.90;;;;;;;;;;5076716;28;20371;-68
2022/07/16 11:19:15;;;;;;;3.38;0.93;;;;;;;;;;5071046;28;20047;-68
2022/07/16 11:22:01;;;;;;;3.97;0.80;;;;;;;;;;5085456;28;20028;-68
2022/07/16 11:24:27;;;;;;;5.10;0.98;;;;;;;;;;5081593;28;20059;-68
2022/07/16 11:26:53;;;;;;;4.63;0.73;;;;;;;;;;5085377;28;20046;-68
2022/07/16 11:29:20;;;;;;;4.68;0.90;;;;;;;;;;5084621;28;20038;-68
2022/07/16 11:31:46;;;;;;;3.75;0.80;;;;;;;;;;5084701;28;20077;-68
2022/07/16 11:34:11;;;;;;;5.43;0.90;;;;;;;;;;5080110;28;20020;-68
2022/07/16 11:36:44;;;;;;;3.95;0.80;;;;;;;;;;5070284;28;20040;-68
2022/07/16 11:39:10;;;;;;;5.03;0.80;;;;;;;;;;5070625;28;20056;-68
2022/07/16 11:41:37;;;;;;;5.85;1.00;;;;;;;;;;5068838;28;20037;-68
2022/07/16 11:44:09;;;;;;;2.78;0.70;;;;;;;;;;5081545;28;20495;-68
2022/07/16 11:46:34;;;;;;;3.80;0.93;;;;;;;;;;5075149;28;20250;-68
2022/07/16 11:48:59;;;;;;;5.68;0.90;;;;;;;;;;5078155;28;20021;-68
2022/07/16 11:51:28;;;;;;;3.30;0.80;;;;;;;;;;5080831;28;20071;-68
2022/07/16 11:53:53;;;;;;;3.97;0.98;;;;;;;;;;5071418;28;20029;-68
2022/07/16 11:56:32;;;;;;;4.35;0.90;;;;;;;;;;5074369;28;20029;-68
2022/07/16 11:58:57;;;;;;;3.45;0.70;;;;;;;;;;5073620;28;20028;-68
2022/07/16 12:01:24;;;;;;;4.72;1.00;;;;;;;;;;5067937;28;20024;-68
2022/07/16 12:03:53;;;;;;;5.95;0.80;;;;;;;;;;5071725;28;20027;-68
2022/07/16 12:06:18;;;;;;;4.90;0.82;;;;;;;;;;5069510;28;20021;-68
2022/07/16 12:09:02;;;;;;;6.78;0.80;;;;;;;;;;5082134;28;20078;-67
2022/07/16 12:11:34;;;;;;;6.03;0.90;;;;;;;;;;5086332;28;20085;-68
2022/07/16 12:14:02;;;;;;;4.57;1.10;;;;;;;;;;5081760;28;20033;-68
2022/07/16 12:16:27;;;;;;;4.55;0.80;;;;;;;;;;5077741;28;20119;-68
2022/07/16 12:19:03;;;;;;;5.22;0.82;;;;;;;;;;5081223;28;20549;-68
2022/07/16 12:21:32;;;;;;;2.38;0.82;;;;;;;;;;5072756;28;20063;-68
2022/07/16 12:23:57;;;;;;;5.63;0.90;;;;;;;;;;5074980;28;20506;-68
2022/07/16 12:26:26;;;;;;;4.78;0.90;;;;;;;;;;5077386;28;20023;-68
2022/07/16 12:28:53;;;;;;;3.47;0.80;;;;;;;;;;5082389;28;20107;-68
2022/07/16 12:31:18;;;;;;;4.72;1.10;;;;;;;;;;5076837;28;20024;-67
2022/07/16 12:33:50;;;;;;;5.05;0.90;;;;;;;;;;5078495;28;20031;-68
2022/07/16 12:36:15;;;;;;;3.60;0.93;;;;;;;;;;5081734;28;20472;-68
2022/07/16 12:38:52;;;;;;;4.75;0.95;;;;;;;;;;5083173;28;20031;-68
2022/07/16 12:41:18;;;;;;;8.85;1.33;;;;;;;;;;5074635;28;20025;-68
2022/07/16 12:43:44;;;;;;;5.43;0.90;;;;;;;;;;5075785;28;20111;-68
2022/07/16 12:46:10;;;;;;;5.75;0.75;;;;;;;;;;5078142;28;20551;-68
2022/07/16 12:48:40;;;;;;;2.95;0.68;;;;;;;;;;5078458;28;20112;-69
2022/07/16 12:51:05;;;;;;;3.97;1.00;;;;;;;;;;5072231;28;20090;-68
2022/07/16 12:53:30;;;;;;;6.70;0.88;;;;;;;;;;5080028;28;20555;-68
2022/07/16 12:58:48;;;;;;;5.80;0.93;;;;;;;;;;5076612;28;20052;-68
2022/07/16 13:01:14;;;;;;;4.22;0.75;;;;;;;;;;5074453;28;20015;-68
2022/07/16 13:03:40;;;;;;;4.88;0.90;;;;;;;;;;5079214;28;20028;-68
2022/07/16 13:06:05;;;;;;;5.32;0.80;;;;;;;;;;5080013;28;20042;-69
2022/07/16 13:08:31;;;;;;;5.00;1.27;;;;;;;;;;5082905;28;20059;-67
2022/07/16 13:10:56;;;;;;;3.88;1.08;;;;;;;;;;5079255;28;20020;-68
2022/07/16 13:13:21;;;;;;;5.13;0.85;;;;;;;;;;5079400;28;20213;-68
2022/07/16 13:15:46;;;;;;;6.30;0.90;;;;;;;;;;5074074;28;20142;-68
2022/07/16 13:18:12;;;;;;;5.82;1.02;;;;;;;;;;5083538;28;20034;-68
2022/07/16 13:20:37;;;;;;;5.43;1.10;;;;;;;;;;5072102;28;20055;-67
2022/07/16 13:23:02;;;;;;;6.55;1.13;;;;;;;;;;5082611;28;20016;-68
2022/07/16 13:25:28;;;;;;;6.03;1.10;;;;;;;;;;5080281;28;20086;-68
2022/07/16 13:27:53;;;;;;;5.03;1.00;;;;;;;;;;5082459;28;20028;-68
2022/07/16 13:30:18;;;;;;;9.18;1.45;;;;;;;;;;5072157;28;20020;-68
2022/07/16 13:32:44;;;;;;;3.97;1.15;;;;;;;;;;5085734;28;20106;-68
2022/07/16 13:35:09;;;;;;;5.28;0.82;;;;;;;;;;5078155;28;20108;-68
2022/07/16 13:37:35;;;;;;;5.10;0.98;;;;;;;;;;5075955;28;20033;-68
2022/07/16 13:40:00;;;;;;;5.32;1.13;;;;;;;;;;5077291;28;20130;-68
2022/07/16 13:42:26;;;;;;;4.40;1.00;;;;;;;;;;5074827;28;20025;-68
2022/07/16 13:44:51;;;;;;;5.65;1.10;;;;;;;;;;5071511;28;20031;-68
2022/07/16 13:47:17;;;;;;;3.70;0.70;;;;;;;;;;5077406;28;20020;-68
2022/07/16 13:49:42;;;;;;;6.75;0.82;;;;;;;;;;5086186;28;20111;-67
2022/07/16 13:52:07;;;;;;;5.50;1.10;;;;;;;;;;5071611;28;20507;-68
2022/07/16 13:54:32;;;;;;;5.47;0.90;;;;;;;;;;5077259;28;20578;-68
2022/07/16 13:58:13;;;;;;;4.32;0.80;;;;;;;;;;5073136;28;20060;-67
2022/07/16 13:59:43;;;;;;;4.38;0.90;;;;;;;;;;5076109;28;20025;-68
2022/07/16 14:02:08;;;;;;;4.82;0.93;;;;;;;;;;5071167;28;20024;-68
2022/07/16 14:04:34;;;;;;;4.15;0.82;;;;;;;;;;5089022;28;20171;-68
2022/07/16 14:06:59;;;;;;;6.03;1.13;;;;;;;;;;5075115;28;20093;-67
2022/07/16 14:09:25;;;;;;;8.45;1.17;;;;;;;;;;5079685;28;20056;-67
2022/07/16 14:11:50;;;;;;;5.25;1.02;;;;;;;;;;5074341;28;20591;-68
2022/07/16 14:14:16;;;;;;;4.60;1.00;;;;;;;;;;5084860;28;20028;-68
2022/07/16 14:16:42;;;;;;;6.38;0.93;;;;;;;;;;5075042;28;20115;-68
2022/07/16 14:19:07;;;;;;;5.28;0.95;;;;;;;;;;5076814;28;20027;-68
2022/07/16 14:21:38;;;;;;;5.53;1.10;;;;;;;;;;5073150;28;20499;-68
2022/07/16 14:24:04;;;;;;;4.15;0.93;;;;;;;;;;5087086;28;20028;-68
2022/07/16 14:26:29;;;;;;;5.85;1.05;;;;;;;;;;5084536;28;20028;-68
2022/07/16 14:28:54;;;;;;;5.57;0.80;;;;;;;;;;5079824;28;20037;-68
2022/07/16 14:31:19;;;;;;;7.53;0.90;;;;;;;;;;5073880;28;20032;-68
2022/07/16 14:33:45;;;;;;;6.93;1.10;;;;;;;;;;5076255;28;20024;-68
2022/07/16 14:36:10;;;;;;;4.65;1.17;;;;;;;;;;5069278;28;20050;-68
2022/07/16 14:38:35;;;;;;;4.20;0.80;;;;;;;;;;5080098;28;20139;-67
2022/07/16 14:41:01;;;;;;;5.82;1.00;;;;;;;;;;5082776;28;20815;-68
2022/07/16 14:43:26;;;;;;;4.03;0.70;;;;;;;;;;5074195;28;20429;-68
2022/07/16 14:45:51;;;;;;;4.25;0.90;;;;;;;;;;5074499;28;20369;-68